Miami, Florida
Traffic Map
Current Weather Conditions
Miami, Florida
Few Clouds
Few Clouds
22°
Feels Like: 22°
Wind Chill: 22° Ceiling: Unl
Heat Index: 22° Visibility: 10mi
Dew Point: 16° Wind: 6mph
Humidity: 70% Direction: 330° (NNW)
Pressure: 30.04in Gusts: 0mph
Raw Report DataKMIA 211353Z 33005KT 10SM FEW020 FEW250 22/16 A3004 RMK AO2 SLP171 T02170161
Traffic Incident Summary
Active as of:
Severity:
Category:
InformationThere was an issue retrieving the traffic information for this location. Please try a different location or try again shortly.
Advertisements
At Last! Intellicast now available for iPhone and Android